createdAt,value
2019-03-22T14:43:40.011Z,27.40
2019-03-22T14:46:11.201Z,27.13
2019-03-22T14:48:46.523Z,27.48
2019-03-22T14:51:18.466Z,26.07
2019-03-22T14:53:49.658Z,25.60
2019-03-22T14:56:20.858Z,24.18
2019-03-22T14:58:53.466Z,28.35
2019-03-22T15:01:24.448Z,25.77
2019-03-22T15:03:58.155Z,25.97
2019-03-22T15:06:30.735Z,26.60
2019-03-22T15:09:02.806Z,25.17
2019-03-22T15:11:33.747Z,26.25
2019-03-22T15:14:07.243Z,27.17
2019-03-22T15:16:39.622Z,27.45
2019-03-22T15:19:12.407Z,26.07
2019-03-22T15:21:44.466Z,26.52
2019-03-22T15:24:16.939Z,26.45
2019-03-22T15:26:49.588Z,28.67
2019-03-22T15:29:27.698Z,28.17
2019-03-22T15:31:59.990Z,28.02
2019-03-22T15:34:33.468Z,28.80
2019-03-22T15:37:06.197Z,27.25
2019-03-22T15:39:38.417Z,27.30
2019-03-22T15:42:13.577Z,29.77
2019-03-22T15:44:44.745Z,28.98
2019-03-22T15:49:54.304Z,29.77
2019-03-22T15:52:34.928Z,29.20
2019-03-22T15:55:14.418Z,29.90
2019-03-22T15:57:51.625Z,31.35
2019-03-22T16:00:24.371Z,31.07
2019-03-22T16:02:58.692Z,31.93
2019-03-22T16:05:30.250Z,31.10
2019-03-22T16:10:32.029Z,33.30
2019-03-22T16:13:03.581Z,34.10
2019-03-22T16:15:35.739Z,33.95
2019-03-22T16:18:08.436Z,34.88
2019-03-22T16:20:42.608Z,35.33
2019-03-22T16:23:18.576Z,34.92
2019-03-22T16:25:50.027Z,34.70
2019-03-22T16:28:21.296Z,36.38
2019-03-22T16:30:53.039Z,36.30
2019-03-22T16:33:24.011Z,36.85
2019-03-22T16:35:55.397Z,36.13
2019-03-22T16:38:29.755Z,39.67
2019-03-22T16:41:05.064Z,39.38
2019-03-22T16:43:39.517Z,38.28
2019-03-22T16:46:14.082Z,38.38
2019-03-22T16:48:47.663Z,39.88
2019-03-22T16:51:27.946Z,39.38
2019-03-22T16:53:59.687Z,40.65
2019-03-22T16:56:31.297Z,38.78
2019-03-22T16:59:03.131Z,37.78
2019-03-22T17:01:34.018Z,37.70
2019-03-22T17:04:10.329Z,37.90
2019-03-22T17:06:41.749Z,37.98
2019-03-22T17:09:20.059Z,39.42
2019-03-22T17:11:51.702Z,38.88
2019-03-22T17:14:26.448Z,38.33
2019-03-22T17:16:58.675Z,40.92
2019-03-22T17:19:31.654Z,39.05
2019-03-22T17:22:03.154Z,39.75
2019-03-22T17:24:34.430Z,38.55
2019-03-22T17:27:07.142Z,37.28
2019-03-22T17:29:38.262Z,39.30
2019-03-22T17:32:10.370Z,38.88
2019-03-22T17:34:48.317Z,37.83
2019-03-22T17:37:20.002Z,40.30
2019-03-22T17:39:51.837Z,38.02
2019-03-22T17:42:30.558Z,38.78
2019-03-22T17:45:01.872Z,38.53
2019-03-22T17:47:33.777Z,38.35
2019-03-22T17:50:04.558Z,39.15
2019-03-22T17:52:35.936Z,39.15
2019-03-22T17:57:38.593Z,38.50
2019-03-22T18:02:43.399Z,37.23
2019-03-22T18:05:17.593Z,38.53
2019-03-22T18:07:48.871Z,38.23
2019-03-22T18:10:20.885Z,38.33
2019-03-22T18:12:52.319Z,37.95
2019-03-22T18:15:24.153Z,36.95
2019-03-22T18:17:57.551Z,40.52
2019-03-22T18:20:29.220Z,38.48
2019-03-22T18:23:01.107Z,39.23
2019-03-22T18:25:39.475Z,39.78
2019-03-22T18:28:13.814Z,39.15
2019-03-22T18:30:45.300Z,39.00
2019-03-22T18:35:48.257Z,39.67
2019-03-22T18:38:19.282Z,40.10
2019-03-22T18:40:50.709Z,38.73
2019-03-22T18:46:00.939Z,37.45
2019-03-22T18:48:32.376Z,40.00
2019-03-22T18:51:03.232Z,39.70
2019-03-22T18:53:34.930Z,39.13
2019-03-22T18:56:13.659Z,40.58
2019-03-22T18:58:45.699Z,37.42
2019-03-22T19:01:18.069Z,37.88
2019-03-22T19:03:49.677Z,38.02
2019-03-22T19:06:21.925Z,38.98
2019-03-22T19:08:53.614Z,36.68
2019-03-22T19:11:26.085Z,37.80
2019-03-22T19:13:57.534Z,37.88
2019-03-22T19:16:28.927Z,36.65
2019-03-22T19:21:37.044Z,38.02
2019-03-22T19:24:08.453Z,37.35
2019-03-22T19:26:39.740Z,37.93
2019-03-22T19:29:11.316Z,36.48
2019-03-22T19:31:42.578Z,37.50
2019-03-22T19:36:58.765Z,38.95
2019-03-22T19:39:29.960Z,37.60
2019-03-22T19:42:08.625Z,36.65
2019-03-22T19:44:40.621Z,37.28
2019-03-22T19:47:11.952Z,37.83
2019-03-22T19:49:43.446Z,38.50
2019-03-22T19:52:15.012Z,37.95
2019-03-22T19:54:46.386Z,37.78
2019-03-22T19:57:17.550Z,38.55
2019-03-22T19:59:50.069Z,35.70
2019-03-22T20:02:21.367Z,38.05
2019-03-22T20:04:52.186Z,36.88
2019-03-22T20:07:27.028Z,39.50
2019-03-22T20:09:57.521Z,38.70
2019-03-22T20:12:29.204Z,38.15
2019-03-22T20:15:00.357Z,39.53
2019-03-22T20:17:31.731Z,37.93
2019-03-22T20:20:02.928Z,39.35
2019-03-22T20:22:34.250Z,39.48
2019-03-22T20:25:12.741Z,38.55
2019-03-22T20:27:44.258Z,41.45
2019-03-22T20:30:26.681Z,38.70
2019-03-22T20:32:57.962Z,40.03
2019-03-22T20:35:29.563Z,37.88
2019-03-22T20:40:32.135Z,37.77
2019-03-22T20:43:03.247Z,38.42
2019-03-22T20:45:34.331Z,40.15
2019-03-22T20:50:45.468Z,38.90
2019-03-22T20:53:17.012Z,39.45
2019-03-22T20:55:55.726Z,37.35
2019-03-22T20:58:27.434Z,39.80
2019-03-22T21:01:06.619Z,38.00
2019-03-22T21:03:38.246Z,38.95
2019-03-22T21:06:09.934Z,38.58
2019-03-22T21:08:41.134Z,40.63
2019-03-22T21:11:12.805Z,39.38
2019-03-22T21:16:21.142Z,39.65
2019-03-22T21:21:28.008Z,38.53
2019-03-22T21:23:55.653Z,39.10
2019-03-22T21:26:27.243Z,36.98
2019-03-22T21:28:58.384Z,37.45
2019-03-22T21:31:36.663Z,38.38
2019-03-22T21:34:08.544Z,39.65
2019-03-22T21:36:46.945Z,39.15
2019-03-22T21:39:18.479Z,42.35
2019-03-22T21:44:32.859Z,38.02
2019-03-22T21:47:04.623Z,37.23
2019-03-22T21:49:37.115Z,39.05
2019-03-22T21:52:07.815Z,41.35
2019-03-22T21:54:42.576Z,39.40
2019-03-22T21:57:14.323Z,40.75
2019-03-22T21:59:55.657Z,39.60
2019-03-22T22:02:34.426Z,41.13
2019-03-22T22:05:06.398Z,37.80
2019-03-22T22:07:38.118Z,40.45
2019-03-22T22:12:48.743Z,43.60
2019-03-22T22:15:19.997Z,44.38
2019-03-22T22:17:58.911Z,37.73
2019-03-22T22:20:30.048Z,44.10
2019-03-22T22:23:01.660Z,38.90
2019-03-22T22:28:10.500Z,45.38
2019-03-22T22:30:43.023Z,43.00
2019-03-22T22:33:22.585Z,49.65
2019-03-22T22:35:58.557Z,46.30
2019-03-22T22:38:27.548Z,50.23
2019-03-22T22:40:59.854Z,46.33
2019-03-22T22:43:32.851Z,50.48
2019-03-22T22:46:10.536Z,50.48
2019-03-22T22:48:42.135Z,49.05
2019-03-22T22:53:44.903Z,45.95
2019-03-22T22:56:15.788Z,49.15
2019-03-22T22:58:47.572Z,47.03
2019-03-22T23:03:49.587Z,50.60
2019-03-22T23:08:51.057Z,53.45
2019-03-22T23:11:22.216Z,51.73
2019-03-22T23:13:54.829Z,51.50
2019-03-22T23:16:27.458Z,48.10
2019-03-22T23:19:05.483Z,51.48
2019-03-22T23:21:37.022Z,49.73
2019-03-22T23:24:16.775Z,46.85
2019-03-22T23:26:56.553Z,48.75
2019-03-22T23:29:28.702Z,48.42
2019-03-22T23:32:00.218Z,47.80
2019-03-22T23:37:09.773Z,44.75
2019-03-22T23:39:41.601Z,45.05
2019-03-22T23:42:13.656Z,45.20
2019-03-22T23:44:45.068Z,46.10
2019-03-22T23:47:16.449Z,43.73
2019-03-22T23:49:48.797Z,49.03
2019-03-22T23:52:19.958Z,48.33
2019-03-22T23:54:51.687Z,51.28
2019-03-22T23:57:23.352Z,49.45
